Time;durP1;ratioP1;P1;durP2;ratioP2;P2;SDS_P1;SDS_P2;PMS_P1;PMS_P2;Temp;Humidity;BMP_temperature;BMP_pressure;BME280_temperature;BME280_humidity;BME280_pressure;Samples;Min_cycle;Max_cycle;Signal;HPM_P1;HPM_P2
2023/07/03 00:00:12;;;;;;;1999.90;999.90;;;;;;;18.99;100.00;97557.69;5093733;28;20028;-80
2023/07/03 00:02:42;;;;;;;1999.90;999.90;;;;;;;19.00;100.00;97570.41;5101805;28;20035;-83
2023/07/03 00:05:09;;;;;;;1999.90;999.90;;;;;;;19.00;100.00;97558.50;5105010;28;20047;-84
2023/07/03 00:07:36;;;;;;;1999.90;999.90;;;;;;;19.00;100.00;97553.75;5102115;28;20035;-80
2023/07/03 00:10:04;;;;;;;1999.90;999.90;;;;;;;19.15;100.00;97557.66;5100616;28;20032;-83
2023/07/03 00:12:30;;;;;;;1999.90;999.90;;;;;;;19.22;100.00;97555.88;5098493;28;20472;-83
2023/07/03 00:14:55;;;;;;;1999.90;999.90;;;;;;;19.31;100.00;97552.06;5098205;28;20026;-83
2023/07/03 00:17:20;;;;;;;1999.90;999.90;;;;;;;19.43;100.00;97560.28;5103980;28;20016;-84
2023/07/03 00:19:46;;;;;;;1999.90;999.90;;;;;;;19.30;100.00;97547.69;5105566;28;20075;-84
2023/07/03 00:22:11;;;;;;;1999.90;999.90;;;;;;;19.23;100.00;97557.44;5106106;28;20028;-84
2023/07/03 00:24:36;;;;;;;1999.90;999.90;;;;;;;19.17;100.00;97547.81;5104264;28;20024;-80
2023/07/03 00:27:02;;;;;;;1999.90;999.90;;;;;;;19.11;100.00;97549.25;5108352;28;20020;-84
2023/07/03 00:29:32;;;;;;;1999.90;999.90;;;;;;;19.16;100.00;97548.19;5105283;28;20107;-84
2023/07/03 00:31:58;;;;;;;1999.90;999.90;;;;;;;19.23;100.00;97548.34;5104869;28;20031;-84
2023/07/03 00:34:24;;;;;;;1999.90;999.90;;;;;;;19.14;100.00;97545.75;5104308;28;20047;-84
2023/07/03 00:36:49;;;;;;;1999.90;999.90;;;;;;;19.11;100.00;97554.78;5109226;28;20084;-80
2023/07/03 00:39:15;;;;;;;1999.90;999.90;;;;;;;19.09;100.00;97548.00;5107704;28;20028;-82
2023/07/03 00:41:42;;;;;;;1999.90;999.90;;;;;;;19.10;100.00;97547.66;5104397;28;20027;-83
2023/07/03 00:44:12;;;;;;;1999.90;999.90;;;;;;;19.11;100.00;97543.72;5103987;28;20047;-85
2023/07/03 00:46:43;;;;;;;1999.90;999.90;;;;;;;19.08;100.00;97541.66;5104329;28;20027;-81
2023/07/03 00:49:10;;;;;;;1999.90;999.90;;;;;;;19.05;100.00;97539.59;5103739;28;20040;-83
2023/07/03 00:51:39;;;;;;;1999.90;999.90;;;;;;;19.06;100.00;97551.50;5109969;28;20047;-83
2023/07/03 00:54:04;;;;;;;1999.90;999.90;;;;;;;19.07;100.00;97555.91;5121146;28;20035;-80
2023/07/03 00:56:29;;;;;;;1999.90;999.90;;;;;;;19.11;100.00;97559.53;5120841;28;20468;-82
2023/07/03 00:58:55;;;;;;;1999.90;999.90;;;;;;;19.32;100.00;97553.69;5122958;28;20075;-80
2023/07/03 01:01:26;;;;;;;1999.90;999.90;;;;;;;19.38;100.00;97557.78;5123149;28;20035;-84
2023/07/03 01:04:03;;;;;;;1999.90;999.90;;;;;;;19.40;100.00;97563.81;5125009;28;20020;-85
2023/07/03 01:06:33;;;;;;;1999.90;999.90;;;;;;;19.41;100.00;97554.31;5124423;28;20027;-83
2023/07/03 01:09:01;;;;;;;1999.90;999.90;;;;;;;19.33;100.00;97555.31;5121703;28;20495;-82
2023/07/03 01:11:27;;;;;;;1999.90;999.90;;;;;;;19.27;100.00;97557.53;5119918;28;20036;-82
2023/07/03 01:13:57;;;;;;;1999.90;999.90;;;;;;;19.17;100.00;97556.13;5121538;28;20031;-82
2023/07/03 01:16:23;;;;;;;1999.90;999.90;;;;;;;19.13;100.00;97558.03;5124364;27;20060;-82
2023/07/03 01:18:53;;;;;;;1999.90;999.90;;;;;;;19.09;100.00;97550.78;5122843;28;20491;-81
2023/07/03 01:21:29;;;;;;;1999.90;999.90;;;;;;;19.04;100.00;97551.88;5124300;28;20039;-84
2023/07/03 01:24:05;;;;;;;1999.90;999.90;;;;;;;18.99;100.00;97556.88;5125078;28;20024;-82
2023/07/03 01:26:32;;;;;;;1999.90;999.90;;;;;;;18.93;100.00;97564.66;5126512;28;20483;-84
2023/07/03 01:28:59;;;;;;;1999.90;999.90;;;;;;;18.94;100.00;97559.94;5126388;28;20045;-84
2023/07/03 01:31:29;;;;;;;1999.90;999.90;;;;;;;18.98;100.00;97553.28;5126406;27;20026;-84
2023/07/03 01:33:57;;;;;;;1999.90;999.90;;;;;;;19.09;100.00;97557.13;5127631;28;20031;-84
2023/07/03 01:36:23;;;;;;;1999.90;999.90;;;;;;;19.03;100.00;97557.78;5128088;28;20045;-86
2023/07/03 01:38:50;;;;;;;1999.90;999.90;;;;;;;19.17;100.00;97556.13;5128140;28;20016;-83
2023/07/03 01:41:17;;;;;;;1999.90;999.90;;;;;;;19.04;100.00;97557.44;5125352;28;20059;-84
2023/07/03 01:43:45;;;;;;;1999.90;999.90;;;;;;;18.89;100.00;97558.22;5127511;28;20053;-84
2023/07/03 01:46:11;;;;;;;1999.90;999.90;;;;;;;18.78;100.00;97548.84;5124868;28;20034;-82
2023/07/03 01:48:36;;;;;;;1999.90;999.90;;;;;;;18.77;100.00;97555.56;5125173;28;20055;-85
2023/07/03 01:51:03;;;;;;;1999.90;999.90;;;;;;;18.74;100.00;97561.81;5125254;28;20536;-84
2023/07/03 01:53:51;;;;;;;1999.90;999.90;;;;;;;18.70;100.00;97549.84;5116238;28;20032;-83
2023/07/03 01:56:29;;;;;;;1999.90;999.90;;;;;;;18.67;100.00;97539.47;5124202;28;20036;-85
2023/07/03 01:59:10;;;;;;;1999.90;999.90;;;;;;;18.59;100.00;97548.78;5103688;28;20039;-86
2023/07/03 02:01:55;;;;;;;1999.90;999.90;;;;;;;18.51;100.00;97533.16;5104938;28;20073;-85
2023/07/03 02:04:35;;;;;;;1999.90;999.90;;;;;;;18.52;100.00;97546.63;5104517;28;20024;-85
2023/07/03 02:07:06;;;;;;;1999.90;999.90;;;;;;;18.50;100.00;97540.66;5101594;28;20060;-84
2023/07/03 02:09:32;;;;;;;1999.90;999.90;;;;;;;18.48;100.00;97540.16;5102411;28;20476;-83
2023/07/03 02:11:57;;;;;;;1999.90;999.90;;;;;;;18.44;100.00;97541.22;5102694;28;20030;-83
2023/07/03 02:14:24;;;;;;;1999.90;999.90;;;;;;;18.40;100.00;97543.09;5100026;28;20119;-85
2023/07/03 02:16:52;;;;;;;1999.90;999.90;;;;;;;18.43;100.00;97556.22;5102232;28;20031;-85
2023/07/03 02:19:22;;;;;;;1999.90;999.90;;;;;;;18.37;100.00;97558.47;5112177;28;20030;-85
2023/07/03 02:21:47;;;;;;;1999.90;999.90;;;;;;;18.38;100.00;97565.63;5102527;28;20093;-83
2023/07/03 02:24:13;;;;;;;1999.90;999.90;;;;;;;18.42;100.00;97565.72;5097962;28;20023;-85
2023/07/03 02:26:39;;;;;;;1999.90;999.90;;;;;;;18.43;100.00;97570.09;5100752;28;20024;-81
2023/07/03 02:29:04;;;;;;;1999.90;999.90;;;;;;;18.44;100.00;97575.28;5099250;28;20028;-84
2023/07/03 02:31:30;;;;;;;1999.90;999.90;;;;;;;18.45;100.00;97573.31;5097855;28;20107;-83
2023/07/03 02:33:55;;;;;;;1999.90;999.90;;;;;;;18.60;100.00;97575.31;5100455;28;20024;-81
2023/07/03 02:36:20;;;;;;;1999.90;999.90;;;;;;;18.62;100.00;97575.75;5100155;28;20021;-81
2023/07/03 02:38:46;;;;;;;1999.90;999.90;;;;;;;18.51;100.00;97575.47;5098603;28;20024;-84
2023/07/03 02:41:11;;;;;;;1999.90;999.90;;;;;;;18.40;100.00;97585.47;5099018;28;20510;-84
2023/07/03 02:43:36;;;;;;;1999.90;999.90;;;;;;;18.33;100.00;97573.38;5100763;28;20020;-84
2023/07/03 02:46:07;;;;;;;1999.90;999.90;;;;;;;18.37;100.00;97563.19;5098579;28;20031;-83
2023/07/03 02:48:32;;;;;;;1999.90;999.90;;;;;;;18.37;100.00;97579.81;5101545;28;20076;-86
2023/07/03 02:50:58;;;;;;;1999.90;999.90;;;;;;;18.31;100.00;97567.41;5102864;28;20027;-85
2023/07/03 02:53:23;;;;;;;1999.90;999.90;;;;;;;18.32;100.00;97582.84;5100687;28;20026;-84
2023/07/03 02:55:50;;;;;;;1999.90;999.90;;;;;;;18.32;100.00;97586.44;5096847;28;20028;-83
2023/07/03 02:58:19;;;;;;;1999.90;999.90;;;;;;;18.32;100.00;97588.41;5101030;28;20028;-84
2023/07/03 03:00:44;;;;;;;1999.90;999.90;;;;;;;18.32;100.00;97589.22;5103953;28;20028;-84
2023/07/03 03:03:10;;;;;;;1999.90;999.90;;;;;;;18.38;100.00;97598.06;5100738;28;20043;-86
2023/07/03 03:05:35;;;;;;;1999.90;999.90;;;;;;;18.37;100.00;97600.00;5101294;28;20099;-83
2023/07/03 03:08:00;;;;;;;1999.90;999.90;;;;;;;18.35;100.00;97599.56;5100486;28;20391;-84
2023/07/03 03:10:26;;;;;;;1999.90;999.90;;;;;;;18.35;100.00;97599.56;5098919;28;20062;-83
2023/07/03 03:12:51;;;;;;;1999.90;999.90;;;;;;;18.31;100.00;97584.81;5100302;28;20028;-85
2023/07/03 03:15:18;;;;;;;1999.90;999.90;;;;;;;18.33;100.00;97584.44;5098959;28;20519;-84
2023/07/03 03:17:44;;;;;;;1999.90;999.90;;;;;;;18.35;100.00;97582.16;5102661;28;20082;-84
2023/07/03 03:20:13;;;;;;;1999.90;999.90;;;;;;;18.37;100.00;97585.34;5102113;28;20107;-84
2023/07/03 03:22:39;;;;;;;1999.90;999.90;;;;;;;18.38;100.00;97585.00;5102335;28;20024;-82
2023/07/03 03:25:05;;;;;;;1999.90;999.90;;;;;;;18.57;100.00;97595.44;5100629;28;20031;-85
2023/07/03 03:27:30;;;;;;;1999.90;999.90;;;;;;;18.59;100.00;97595.88;5102053;28;20035;-84
2023/07/03 03:29:55;;;;;;;1999.90;999.90;;;;;;;18.67;100.00;97595.69;5102173;28;20032;-85
2023/07/03 03:32:21;;;;;;;1999.90;999.90;;;;;;;18.85;100.00;97603.66;5100762;28;20480;-81
2023/07/03 03:34:47;;;;;;;1999.90;999.90;;;;;;;18.79;100.00;97602.31;5101273;28;20046;-83
2023/07/03 03:37:12;;;;;;;1999.90;999.90;;;;;;;18.83;100.00;97604.00;5102550;28;20036;-85
2023/07/03 03:39:37;;;;;;;1999.90;999.90;;;;;;;18.90;100.00;97609.75;5102650;28;20055;-85
2023/07/03 03:42:03;;;;;;;1999.90;999.90;;;;;;;18.85;100.00;97610.03;5101443;28;20020;-86
2023/07/03 03:44:28;;;;;;;1999.90;999.90;;;;;;;18.92;100.00;97632.34;5101967;28;20027;-84
2023/07/03 03:46:54;;;;;;;1999.90;999.90;;;;;;;18.89;100.00;97629.50;5102219;28;20054;-84
2023/07/03 03:49:20;;;;;;;1999.90;999.90;;;;;;;18.80;100.00;97631.63;5102059;28;20028;-82
2023/07/03 03:51:45;;;;;;;1999.90;999.90;;;;;;;18.85;100.00;97629.44;5099092;28;20480;-82
2023/07/03 03:54:10;;;;;;;1999.90;999.90;;;;;;;18.79;100.00;97625.31;5100248;28;20024;-84
2023/07/03 03:56:36;;;;;;;1999.90;999.90;;;;;;;18.79;100.00;97633.63;5101702;28;20106;-83
2023/07/03 03:59:01;;;;;;;1999.90;999.90;;;;;;;18.81;100.00;97627.72;5102118;28;20517;-84
2023/07/03 04:01:27;;;;;;;1999.90;999.90;;;;;;;18.75;100.00;97627.19;5112089;28;20027;-83
2023/07/03 04:03:52;;;;;;;1999.90;999.90;;;;;;;18.73;100.00;97629.50;5112274;28;20069;-83
2023/07/03 04:06:18;;;;;;;1999.90;999.90;;;;;;;18.73;100.00;97629.50;5111601;28;20024;-81
2023/07/03 04:08:45;;;;;;;1999.90;999.90;;;;;;;18.64;100.00;97629.66;5106772;28;20037;-81
2023/07/03 04:11:10;;;;;;;1999.90;999.90;;;;;;;18.60;100.00;97616.88;5105053;28;20065;-81
2023/07/03 04:13:36;;;;;;;1999.90;999.90;;;;;;;18.71;100.00;97627.06;5091654;28;20400;-85
2023/07/03 04:16:03;;;;;;;1999.90;999.90;;;;;;;18.84;100.00;97627.00;5103130;28;20028;-83
2023/07/03 04:18:30;;;;;;;1999.90;999.90;;;;;;;18.93;100.00;97630.38;5095539;28;20032;-83
2023/07/03 04:20:55;;;;;;;1999.90;999.90;;;;;;;19.01;100.00;97633.00;5082937;28;20048;-84
2023/07/03 04:23:21;;;;;;;1999.90;999.90;;;;;;;19.07;100.00;97637.13;5081629;28;20033;-84
2023/07/03 04:25:48;;;;;;;1999.90;999.90;;;;;;;19.01;100.00;97638.56;5083563;28;20031;-82
2023/07/03 04:28:16;;;;;;;1999.90;999.90;;;;;;;18.95;100.00;97633.63;5083914;28;20017;-82
2023/07/03 04:30:41;;;;;;;1999.90;999.90;;;;;;;18.87;100.00;97635.41;5082568;28;20048;-82
2023/07/03 04:33:07;;;;;;;1999.90;999.90;;;;;;;18.93;100.00;97636.75;5081798;28;20032;-84
2023/07/03 04:35:32;;;;;;;1999.90;999.90;;;;;;;18.92;100.00;97634.34;5086702;28;20089;-84
2023/07/03 04:37:57;;;;;;;1999.90;999.90;;;;;;;18.99;100.00;97645.59;5101215;28;20031;-84
2023/07/03 04:40:23;;;;;;;1999.90;999.90;;;;;;;19.04;100.00;97648.13;5094689;28;20499;-77
2023/07/03 04:42:48;;;;;;;1999.90;999.90;;;;;;;19.07;100.00;97642.66;5093116;28;20024;-74
2023/07/03 04:45:15;;;;;;;1999.90;999.90;;;;;;;19.15;100.00;97646.41;5093025;28;20106;-75
2023/07/03 04:47:41;;;;;;;1999.90;999.90;;;;;;;19.19;100.00;97644.53;5092909;28;20040;-75
2023/07/03 04:50:12;;;;;;;1999.90;999.90;;;;;;;19.22;100.00;97650.16;5092872;28;20051;-77
2023/07/03 04:52:38;;;;;;;1999.90;999.90;;;;;;;19.26;100.00;97662.13;5096611;28;20424;-77
2023/07/03 04:55:08;;;;;;;1999.90;999.90;;;;;;;19.27;100.00;97660.97;5092780;28;20035;-79
2023/07/03 04:57:42;;;;;;;1999.90;999.90;;;;;;;19.24;100.00;97675.56;5092710;28;20032;-76
2023/07/03 05:00:14;;;;;;;1999.90;999.90;;;;;;;19.21;100.00;97672.69;5092838;28;20086;-76
2023/07/03 05:02:44;;;;;;;1999.90;999.90;;;;;;;19.28;100.00;97670.09;5093191;28;20028;-75
2023/07/03 05:05:11;;;;;;;1999.90;999.90;;;;;;;19.19;100.00;97675.84;5092776;28;20545;-77
2023/07/03 05:07:37;;;;;;;1999.90;999.90;;;;;;;19.27;100.00;97682.34;5092622;28;20032;-74
2023/07/03 05:10:03;;;;;;;1999.90;999.90;;;;;;;19.32;100.00;97686.84;5091596;28;20162;-77
2023/07/03 05:12:28;;;;;;;1999.90;999.90;;;;;;;19.12;100.00;97688.72;5092683;28;20110;-76
2023/07/03 05:14:54;;;;;;;1999.90;999.90;;;;;;;19.04;100.00;97698.84;5100614;28;20023;-73
2023/07/03 05:17:20;;;;;;;1999.90;999.90;;;;;;;19.16;100.00;97695.16;5092521;28;20024;-73
2023/07/03 05:19:45;;;;;;;1999.90;999.90;;;;;;;19.22;100.00;97688.19;5092421;28;20026;-73
2023/07/03 05:22:11;;;;;;;1999.90;999.90;;;;;;;19.22;100.00;97697.31;5092364;28;20028;-73
2023/07/03 05:24:36;;;;;;;1999.90;999.90;;;;;;;19.26;100.00;97705.72;5091939;28;20610;-73
2023/07/03 05:27:02;;;;;;;1999.90;999.90;;;;;;;19.34;100.00;97712.25;5091200;28;20684;-73
2023/07/03 05:29:27;;;;;;;1999.90;999.90;;;;;;;19.39;100.00;97717.53;5091647;28;20096;-73
2023/07/03 05:31:52;;;;;;;1999.90;999.90;;;;;;;19.40;100.00;97711.66;5092271;28;20047;-74
2023/07/03 05:34:18;;;;;;;1999.90;999.90;;;;;;;19.41;100.00;97710.50;5092462;28;20111;-74
2023/07/03 05:36:43;;;;;;;1999.90;999.90;;;;;;;19.48;100.00;97713.44;5092015;28;20032;-75
2023/07/03 05:39:08;;;;;;;1999.90;999.90;;;;;;;19.49;100.00;97709.50;5091676;28;20498;-74
2023/07/03 05:41:34;;;;;;;1999.90;999.90;;;;;;;19.48;100.00;97716.22;5091825;28;20103;-73
2023/07/03 05:43:59;;;;;;;1999.90;999.90;;;;;;;19.54;100.00;97711.19;5091990;28;20024;-74
2023/07/03 05:46:24;;;;;;;1999.90;999.90;;;;;;;19.55;100.00;97712.78;5091638;28;20446;-75
2023/07/03 05:48:50;;;;;;;1999.90;999.90;;;;;;;19.51;100.00;97714.69;5093176;28;20047;-75
2023/07/03 05:51:16;;;;;;;1999.90;999.90;;;;;;;19.53;100.00;97717.91;5092675;28;20119;-76
2023/07/03 05:53:41;;;;;;;1999.90;999.90;;;;;;;19.49;100.00;97711.44;5090433;28;20043;-74
2023/07/03 05:56:06;;;;;;;1999.90;999.90;;;;;;;19.37;100.00;97717.88;5089764;28;20064;-73
2023/07/03 05:58:32;;;;;;;1999.90;999.90;;;;;;;19.34;100.00;97704.72;5082709;28;20040;-74
2023/07/03 06:00:59;;;;;;;1999.90;999.90;;;;;;;19.47;100.00;97711.00;5078184;28;20123;-74
2023/07/03 06:03:25;;;;;;;1999.90;999.90;;;;;;;19.49;100.00;97717.81;5090762;28;20058;-75
2023/07/03 06:05:51;;;;;;;1999.90;999.90;;;;;;;19.38;100.00;97715.91;5090978;28;20054;-74
2023/07/03 06:08:17;;;;;;;1999.90;999.90;;;;;;;19.41;100.00;97729.09;5092074;28;20060;-74
2023/07/03 06:10:42;;;;;;;1999.90;999.90;;;;;;;19.50;100.00;97722.22;5091706;28;20063;-74
2023/07/03 06:13:08;;;;;;;1999.90;999.90;;;;;;;19.46;100.00;97731.59;5092697;28;20567;-75
2023/07/03 06:15:36;;;;;;;1999.90;999.90;;;;;;;19.49;100.00;97731.69;5092449;28;20031;-75
2023/07/03 06:18:04;;;;;;;1999.90;999.90;;;;;;;19.35;100.00;97725.78;5092979;28;20051;-75
2023/07/03 06:20:30;;;;;;;1999.90;999.90;;;;;;;19.38;100.00;97733.38;5092377;28;20024;-75
2023/07/03 06:22:55;;;;;;;1999.90;999.90;;;;;;;19.32;100.00;97734.00;5091670;28;20495;-76
2023/07/03 06:25:21;;;;;;;1999.90;999.90;;;;;;;19.47;100.00;97736.00;5091022;28;20020;-73
2023/07/03 06:27:47;;;;;;;1999.90;999.90;;;;;;;19.34;100.00;97740.78;5089855;28;20177;-76
2023/07/03 06:30:12;;;;;;;1999.90;999.90;;;;;;;19.17;100.00;97746.69;5090822;28;20081;-73
2023/07/03 06:32:38;;;;;;;1999.90;999.90;;;;;;;19.31;100.00;97747.06;5091487;28;20032;-75
2023/07/03 06:35:03;;;;;;;1999.90;999.90;;;;;;;19.35;100.00;97747.16;5091028;28;20111;-74
2023/07/03 06:37:29;;;;;;;1999.90;999.90;;;;;;;19.36;100.00;97752.31;5090438;28;20093;-74
2023/07/03 06:39:54;;;;;;;1999.90;999.90;;;;;;;19.36;100.00;97754.31;5090876;28;20464;-74
2023/07/03 06:42:19;;;;;;;1999.90;999.90;;;;;;;19.33;100.00;97755.03;5090564;28;20028;-74
2023/07/03 06:44:45;;;;;;;1999.90;999.90;;;;;;;19.31;100.00;97758.16;5091030;28;20061;-74
2023/07/03 06:47:10;;;;;;;1999.90;999.90;;;;;;;19.07;100.00;97756.34;5090564;28;20127;-75
2023/07/03 06:49:38;;;;;;;1999.90;999.90;;;;;;;19.06;100.00;97757.50;5090481;28;20505;-75
2023/07/03 06:52:04;;;;;;;1999.90;999.90;;;;;;;19.10;100.00;97757.59;5090672;28;20143;-75
2023/07/03 06:54:31;;;;;;;1999.90;999.90;;;;;;;19.16;100.00;97762.53;5090634;28;20420;-75
2023/07/03 06:56:56;;;;;;;1999.90;999.90;;;;;;;19.21;100.00;97759.47;5090912;28;20032;-75
2023/07/03 06:59:22;;;;;;;1999.90;999.90;;;;;;;18.97;100.00;97758.81;5090600;28;20059;-74
2023/07/03 07:01:47;;;;;;;1999.90;999.90;;;;;;;19.09;100.00;97767.88;5090590;28;20069;-74
2023/07/03 07:04:12;;;;;;;1999.90;999.90;;;;;;;19.00;100.00;97764.47;5091080;28;20463;-74
2023/07/03 07:06:39;;;;;;;1999.90;999.90;;;;;;;18.90;100.00;97770.53;5090450;28;20028;-74
2023/07/03 07:09:04;;;;;;;1999.90;999.90;;;;;;;18.85;100.00;97768.00;5090620;28;20028;-76
2023/07/03 07:11:33;;;;;;;1999.90;999.90;;;;;;;18.98;100.00;97771.53;5090815;28;20039;-75
2023/07/03 07:14:00;;;;;;;1999.90;999.90;;;;;;;18.84;100.00;97757.25;5090497;28;20024;-75
2023/07/03 07:16:32;;;;;;;1999.90;999.90;;;;;;;18.70;100.00;97771.56;5090778;28;20389;-74
2023/07/03 07:19:00;;;;;;;1999.90;999.90;;;;;;;18.68;100.00;97765.53;5090656;28;20555;-75
2023/07/03 07:21:26;;;;;;;1999.90;999.90;;;;;;;18.63;100.00;97763.03;5090473;28;20043;-75
2023/07/03 07:23:54;;;;;;;1999.90;999.90;;;;;;;18.71;100.00;97764.84;5090495;28;20032;-76
2023/07/03 07:26:21;;;;;;;1999.90;999.90;;;;;;;18.83;100.00;97761.19;5091106;28;20028;-75
2023/07/03 07:28:46;;;;;;;1999.90;999.90;;;;;;;18.84;100.00;97768.34;5090084;28;20043;-76
2023/07/03 07:31:21;;;;;;;1999.90;999.90;;;;;;;18.88;100.00;97763.72;5090159;28;20032;-74
2023/07/03 07:33:47;;;;;;;;;;;;;;;18.90;100.00;97762.19;5091247;28;20479;-75
2023/07/03 07:36:17;;;;;;;1999.90;999.90;;;;;;;18.85;100.00;97762.47;5094027;28;19920;-75
2023/07/03 07:38:43;;;;;;;1999.90;999.90;;;;;;;18.96;100.00;97769.09;5093572;28;20465;-76
2023/07/03 07:41:08;;;;;;;1999.90;999.90;;;;;;;18.85;100.00;97768.00;5093664;28;20034;-74
2023/07/03 07:43:36;;;;;;;1999.90;999.90;;;;;;;18.99;100.00;97771.16;5093454;28;20020;-75
2023/07/03 07:46:03;;;;;;;1999.90;999.90;;;;;;;19.10;100.00;97779.78;5093983;28;20110;-77
2023/07/03 07:48:28;;;;;;;1999.90;999.90;;;;;;;19.05;100.00;97780.84;5093613;28;20044;-75
2023/07/03 07:50:54;;;;;;;1999.90;999.90;;;;;;;19.07;100.00;97772.97;5093536;28;20039;-73
2023/07/03 07:53:19;;;;;;;1999.90;999.90;;;;;;;19.01;100.00;97782.72;5093899;28;20040;-74
2023/07/03 07:55:45;;;;;;;1999.90;999.90;;;;;;;18.95;100.00;97772.25;5093551;28;20383;-75
2023/07/03 07:58:10;;;;;;;1999.90;999.90;;;;;;;19.00;100.00;97781.09;5094478;28;20047;-76
2023/07/03 08:00:36;;;;;;;1999.90;999.90;;;;;;;18.95;100.00;97777.78;5092905;28;20032;-74
2023/07/03 08:03:02;;;;;;;1999.90;999.90;;;;;;;18.84;100.00;97765.59;5094083;28;20039;-76
2023/07/03 08:05:27;;;;;;;1999.90;999.90;;;;;;;18.79;100.00;97777.75;5094412;28;20028;-76
2023/07/03 08:07:52;;;;;;;1999.90;999.90;;;;;;;18.89;100.00;97784.75;5094007;28;20448;-76
2023/07/03 08:10:19;;;;;;;1999.90;999.90;;;;;;;18.90;100.00;97789.94;5093745;28;20020;-75
2023/07/03 08:12:45;;;;;;;1999.90;999.90;;;;;;;18.84;100.00;97787.75;5094849;28;20408;-75
2023/07/03 08:15:10;;;;;;;1999.90;999.90;;;;;;;19.02;100.00;97786.28;5097209;28;20092;-75
2023/07/03 08:17:37;;;;;;;1999.90;999.90;;;;;;;18.91;100.00;97793.50;5095443;28;20026;-76
2023/07/03 08:20:09;;;;;;;1999.90;999.90;;;;;;;19.29;100.00;97793.78;5094530;28;20032;-77
2023/07/03 08:22:34;;;;;;;1999.90;999.90;;;;;;;19.43;100.00;97799.72;5094500;28;20035;-76
2023/07/03 08:24:59;;;;;;;1999.90;999.90;;;;;;;19.48;100.00;97804.19;5093881;28;20028;-75
2023/07/03 08:27:25;;;;;;;1999.90;999.90;;;;;;;19.38;100.00;97801.91;5094005;28;20436;-76
2023/07/03 08:29:51;;;;;;;1999.90;999.90;;;;;;;19.47;100.00;97805.34;5094229;28;20059;-75
2023/07/03 08:32:17;;;;;;;1999.90;999.90;;;;;;;19.47;100.00;97783.16;5094989;28;20021;-76
2023/07/03 08:34:42;;;;;;;1999.90;999.90;;;;;;;19.58;100.00;97784.22;5095129;28;20542;-75
2023/07/03 08:37:07;;;;;;;1999.90;999.90;;;;;;;19.54;100.00;97781.38;5093635;28;20484;-76
2023/07/03 08:39:33;;;;;;;1999.90;999.90;;;;;;;19.62;100.00;97779.56;5093520;28;20036;-74
2023/07/03 08:42:11;;;;;;;1999.90;999.90;;;;;;;19.66;100.00;97786.84;5093364;28;20477;-75
2023/07/03 08:44:36;;;;;;;1999.90;999.90;;;;;;;19.54;100.00;97780.56;5091853;28;20489;-74
2023/07/03 08:47:04;;;;;;;1999.90;999.90;;;;;;;19.58;100.00;97792.53;5091936;28;20070;-78
2023/07/03 08:49:31;;;;;;;1999.90;999.90;;;;;;;19.62;100.00;97790.66;5092380;28;20023;-76
2023/07/03 08:51:59;;;;;;;1999.90;999.90;;;;;;;19.67;100.00;97798.75;5092332;28;20032;-75
2023/07/03 08:54:32;;;;;;;1999.90;999.90;;;;;;;19.73;100.00;97800.88;5092392;28;20012;-75
2023/07/03 08:57:00;;;;;;;1999.90;999.90;;;;;;;19.79;100.00;97795.88;5089615;28;20028;-76
2023/07/03 08:59:26;;;;;;;1999.90;999.90;;;;;;;19.85;100.00;97811.09;5092676;28;20032;-76
2023/07/03 09:02:05;;;;;;;1999.90;999.90;;;;;;;19.91;100.00;97804.09;5093036;28;20020;-76
2023/07/03 09:04:46;;;;;;;1999.90;999.90;;;;;;;20.13;100.00;97805.41;5092913;28;20024;-76
2023/07/03 09:07:25;;;;;;;1999.90;999.90;;;;;;;20.28;100.00;97797.06;5091434;28;20027;-76
2023/07/03 09:10:12;;;;;;;1999.90;999.90;;;;;;;20.37;100.00;97804.38;5089607;28;20151;-75
2023/07/03 09:12:45;;;;;;;1999.90;999.90;;;;;;;20.30;100.00;97805.84;5093506;28;20028;-76
2023/07/03 09:15:33;;;;;;;1999.90;999.90;;;;;;;20.50;100.00;97817.00;5095292;28;20016;-78
2023/07/03 09:18:00;;;;;;;1999.90;999.90;;;;;;;20.48;100.00;97816.56;5093684;28;20077;-81
2023/07/03 09:20:29;;;;;;;1999.90;999.90;;;;;;;20.48;100.00;97808.22;5092936;28;20173;-80
2023/07/03 09:23:02;;;;;;;1999.90;999.90;;;;;;;20.33;100.00;97807.09;5093174;28;20107;-79
2023/07/03 09:25:47;;;;;;;1999.90;999.90;;;;;;;20.50;100.00;97803.09;5093941;28;20120;-80
2023/07/03 09:28:12;;;;;;;1999.90;999.90;;;;;;;20.51;100.00;97799.16;5094241;28;20038;-80
2023/07/03 09:30:39;;;;;;;1999.90;999.90;;;;;;;20.56;100.00;97804.41;5095562;28;20480;-82
2023/07/03 09:33:06;;;;;;;1999.90;999.90;;;;;;;20.49;100.00;97805.06;5096125;28;20120;-81
2023/07/03 09:35:36;;;;;;;1999.90;999.90;;;;;;;20.51;100.00;97799.16;5094890;28;20020;-82
2023/07/03 09:38:05;;;;;;;1999.90;999.90;;;;;;;20.30;100.00;97800.28;5093597;28;20056;-79
2023/07/03 09:40:37;;;;;;;1999.90;999.90;;;;;;;20.42;100.00;97798.56;5095670;28;20032;-81
2023/07/03 09:43:03;;;;;;;1999.90;999.90;;;;;;;20.54;100.00;97793.69;5095280;28;20016;-80
2023/07/03 09:45:30;;;;;;;1999.90;999.90;;;;;;;;;;5096056;28;20036;-79
2023/07/03 09:47:58;;;;;;;1999.90;999.90;;;;;;;20.67;100.00;97803.50;5095680;28;20043;-81
2023/07/03 09:50:26;;;;;;;1999.90;999.90;;;;;;;20.59;100.00;97800.91;5094910;28;20032;-79
2023/07/03 09:52:55;;;;;;;1999.90;999.90;;;;;;;20.73;100.00;97806.78;5096031;28;20028;-82
2023/07/03 09:55:21;;;;;;;1999.90;999.90;;;;;;;20.70;100.00;97793.63;5096518;28;20439;-81
2023/07/03 09:57:47;;;;;;;1999.90;999.90;;;;;;;20.67;100.00;97788.78;5096897;28;20046;-82
2023/07/03 10:00:16;;;;;;;1999.90;999.90;;;;;;;20.76;100.00;97794.94;5096763;28;20024;-81
2023/07/03 10:02:43;;;;;;;1999.90;999.90;;;;;;;20.71;100.00;97803.53;5100582;28;20080;-82
2023/07/03 10:05:16;;;;;;;1999.90;999.90;;;;;;;20.62;100.00;97802.97;5096100;28;20480;-83
2023/07/03 10:07:44;;;;;;;1999.90;999.90;;;;;;;20.69;100.00;97798.38;5095869;28;20027;-80
2023/07/03 10:10:17;;;;;;;1999.90;999.90;;;;;;;20.70;100.00;97796.41;5094396;28;20057;-81
2023/07/03 10:12:52;;;;;;;1999.90;999.90;;;;;;;20.81;100.00;97800.19;5095768;28;20024;-83
2023/07/03 10:15:25;;;;;;;1999.90;999.90;;;;;;;20.88;100.00;97791.19;5094377;28;20404;-81
2023/07/03 10:17:56;;;;;;;1999.90;999.90;;;;;;;20.97;100.00;97798.13;5093842;28;20027;-80
2023/07/03 10:20:26;;;;;;;1999.90;999.90;;;;;;;21.15;100.00;97790.16;5094431;28;20081;-82
2023/07/03 10:22:56;;;;;;;1999.90;999.90;;;;;;;21.02;100.00;97797.06;5094274;28;20548;-84
2023/07/03 10:25:27;;;;;;;1999.90;999.90;;;;;;;21.20;100.00;97799.03;5104112;28;20059;-80
2023/07/03 10:28:00;;;;;;;1999.90;999.90;;;;;;;21.28;100.00;97788.81;5094565;28;20020;-78
2023/07/03 10:30:31;;;;;;;1999.90;999.90;;;;;;;21.26;100.00;97791.19;5091700;28;20032;-80
2023/07/03 10:33:00;;;;;;;1999.90;999.90;;;;;;;21.22;100.00;97790.31;5091372;28;20123;-80
2023/07/03 10:35:28;;;;;;;1999.90;999.90;;;;;;;21.41;100.00;97806.16;5091383;28;20023;-81
2023/07/03 10:38:44;;;;;;;1999.90;999.90;;;;;;;21.44;100.00;97803.44;5093245;28;20024;-76
2023/07/03 10:41:26;;;;;;;1999.90;999.90;;;;;;;21.43;100.00;97801.81;5056743;28;20400;-77
2023/07/03 10:43:55;;;;;;;1999.90;999.90;;;;;;;21.41;100.00;97804.19;5089702;28;20039;-79
2023/07/03 10:46:30;;;;;;;1999.90;999.90;;;;;;;21.52;100.00;97799.59;5091111;28;20107;-79
2023/07/03 10:49:01;;;;;;;1999.90;999.90;;;;;;;21.49;100.00;97802.34;5094717;28;20048;-76